createdAt,value
2019-04-30T00:00:58.416Z,13.37
2019-04-30T00:03:46.120Z,10.07
2019-04-30T00:06:15.725Z,12.67
2019-04-30T00:08:45.143Z,13.87
2019-04-30T00:11:15.975Z,8.70
2019-04-30T00:13:45.944Z,13.53
2019-04-30T00:16:15.415Z,8.50
2019-04-30T00:18:57.115Z,11.70
2019-04-30T00:21:18.552Z,9.90
2019-04-30T00:23:45.936Z,7.77
2019-04-30T00:26:17.021Z,7.57
2019-04-30T00:28:47.708Z,9.70
2019-04-30T00:31:17.433Z,9.03
2019-04-30T00:33:46.700Z,8.43
2019-04-30T00:36:17.334Z,8.40
2019-04-30T00:38:46.700Z,7.07
2019-04-30T00:41:15.591Z,7.63
2019-04-30T00:43:48.041Z,7.30
2019-04-30T00:46:17.331Z,6.63
2019-04-30T00:48:45.840Z,8.67
2019-04-30T00:51:21.011Z,7.13
2019-04-30T00:53:51.209Z,6.90
2019-04-30T00:56:19.666Z,8.80
2019-04-30T00:58:46.469Z,8.93
2019-04-30T01:01:37.414Z,7.03
2019-04-30T01:04:12.261Z,7.90
2019-04-30T01:06:41.134Z,7.23
2019-04-30T01:09:10.267Z,7.10
2019-04-30T01:11:39.857Z,9.83
2019-04-30T01:14:09.854Z,8.17
2019-04-30T01:16:39.471Z,9.73
2019-04-30T01:19:10.008Z,5.67
2019-04-30T01:21:40.180Z,6.63
2019-04-30T01:24:09.946Z,7.83
2019-04-30T01:26:39.391Z,7.00
2019-04-30T01:29:10.192Z,7.87
2019-04-30T01:31:40.778Z,10.27
2019-04-30T01:34:13.898Z,9.53
2019-04-30T01:36:43.408Z,10.37
2019-04-30T01:39:11.209Z,9.03
2019-04-30T01:41:40.295Z,12.00
2019-04-30T01:44:11.912Z,4.30
2019-04-30T01:46:43.294Z,6.63
2019-04-30T01:49:10.121Z,7.87
2019-04-30T01:51:38.917Z,6.58
2019-04-30T01:54:09.243Z,10.13
2019-04-30T01:57:03.513Z,5.80
2019-04-30T01:59:51.462Z,6.87
2019-04-30T02:02:22.210Z,7.47
2019-04-30T02:04:50.993Z,5.40
2019-04-30T02:07:19.949Z,5.93
2019-04-30T02:09:48.948Z,8.97
2019-04-30T02:12:21.676Z,6.50
2019-04-30T02:14:49.474Z,8.27
2019-04-30T02:17:19.292Z,8.93
2019-04-30T02:19:56.453Z,6.27
2019-04-30T02:22:18.991Z,8.07
2019-04-30T02:24:48.592Z,5.93
2019-04-30T02:27:19.129Z,7.40
2019-04-30T02:29:49.490Z,6.10
2019-04-30T02:32:20.783Z,7.80
2019-04-30T02:34:55.683Z,5.10
2019-04-30T02:37:30.100Z,10.37
2019-04-30T02:40:00.856Z,5.70
2019-04-30T02:42:31.078Z,8.70
2019-04-30T02:45:03.780Z,5.80
2019-04-30T02:47:32.916Z,6.00
2019-04-30T02:50:15.603Z,6.10
2019-04-30T02:52:36.752Z,5.97
2019-04-30T02:55:09.485Z,8.20
2019-04-30T02:57:40.086Z,8.20
2019-04-30T03:00:16.486Z,5.57
2019-04-30T03:02:45.355Z,6.10
2019-04-30T03:05:14.928Z,6.73
2019-04-30T03:07:43.821Z,5.47
2019-04-30T03:10:12.701Z,5.10
2019-04-30T03:12:41.699Z,5.57
2019-04-30T03:15:10.573Z,6.67
2019-04-30T03:17:50.591Z,6.20
2019-04-30T03:20:44.168Z,6.87
2019-04-30T03:23:12.981Z,7.33
2019-04-30T03:25:41.765Z,7.07
2019-04-30T03:28:10.573Z,7.17
2019-04-30T03:30:41.988Z,5.87
2019-04-30T03:33:12.876Z,6.40
2019-04-30T03:35:46.571Z,7.33
2019-04-30T03:38:10.961Z,5.63
2019-04-30T03:40:40.550Z,5.30
2019-04-30T03:43:10.372Z,6.27
2019-04-30T03:45:40.259Z,9.63
2019-04-30T03:48:10.208Z,7.73
2019-04-30T03:50:52.485Z,5.43
2019-04-30T03:53:10.460Z,8.20
2019-04-30T03:55:39.978Z,8.10
2019-04-30T03:58:09.309Z,7.80
2019-04-30T04:01:00.373Z,6.63
2019-04-30T04:03:29.756Z,7.03
2019-04-30T04:06:21.206Z,9.27
2019-04-30T04:09:01.745Z,6.00
2019-04-30T04:11:34.703Z,7.43
2019-04-30T04:14:03.661Z,6.50
2019-04-30T04:16:32.568Z,4.10
2019-04-30T04:19:02.718Z,7.43
2019-04-30T04:21:32.100Z,5.43
2019-04-30T04:24:01.011Z,6.50
2019-04-30T04:26:30.037Z,7.97
2019-04-30T04:28:59.451Z,7.03
2019-04-30T04:31:29.819Z,7.50
2019-04-30T04:34:00.126Z,7.33
2019-04-30T04:36:30.273Z,10.20
2019-04-30T04:39:00.105Z,8.73
2019-04-30T04:41:29.640Z,7.87
2019-04-30T04:44:00.074Z,8.33
2019-04-30T04:46:30.797Z,7.03
2019-04-30T04:48:59.806Z,6.50
2019-04-30T04:51:38.186Z,4.80
2019-04-30T04:54:00.239Z,7.27
2019-04-30T04:56:30.489Z,10.13
2019-04-30T04:59:00.253Z,11.40
2019-04-30T05:01:29.352Z,5.73
2019-04-30T05:03:59.058Z,7.67
2019-04-30T05:06:29.838Z,6.77
2019-04-30T05:08:59.194Z,8.20
2019-04-30T05:11:31.584Z,7.37
2019-04-30T05:13:59.821Z,8.83
2019-04-30T05:16:28.977Z,11.23
2019-04-30T05:18:58.626Z,9.83
2019-04-30T05:21:41.457Z,7.53
2019-04-30T05:23:59.176Z,9.00
2019-04-30T05:26:28.697Z,5.67
2019-04-30T05:28:59.170Z,6.13
2019-04-30T05:31:28.982Z,6.77
2019-04-30T05:33:58.691Z,4.57
2019-04-30T05:36:29.187Z,5.73
2019-04-30T05:38:58.766Z,7.43
2019-04-30T05:41:28.936Z,4.57
2019-04-30T05:43:59.151Z,5.80
2019-04-30T05:46:29.888Z,6.83
2019-04-30T05:48:59.411Z,4.80
2019-04-30T05:51:28.912Z,7.20
2019-04-30T05:53:59.278Z,17.83
2019-04-30T05:56:30.191Z,5.90
2019-04-30T05:58:59.458Z,5.70
2019-04-30T06:01:29.519Z,5.70
2019-04-30T06:03:59.467Z,8.30
2019-04-30T06:06:28.991Z,6.50
2019-04-30T06:09:07.993Z,6.67
2019-04-30T06:11:55.556Z,6.47
2019-04-30T06:14:49.914Z,5.63
2019-04-30T06:17:19.750Z,6.30
2019-04-30T06:19:51.525Z,5.80
2019-04-30T06:22:20.823Z,5.10
2019-04-30T06:24:49.820Z,9.10
2019-04-30T06:27:19.233Z,9.13
2019-04-30T06:29:49.018Z,6.77
2019-04-30T06:32:18.699Z,9.27
2019-04-30T06:34:49.802Z,7.93
2019-04-30T06:37:19.554Z,6.37
2019-04-30T06:39:50.086Z,7.03
2019-04-30T06:42:19.506Z,8.17
2019-04-30T06:44:49.546Z,9.40
2019-04-30T06:47:20.058Z,8.23
2019-04-30T06:49:49.176Z,7.87
2019-04-30T06:52:22.764Z,7.93
2019-04-30T06:54:49.832Z,9.03
2019-04-30T06:57:19.857Z,8.37
2019-04-30T06:59:51.315Z,7.47
2019-04-30T07:02:19.842Z,7.37
2019-04-30T07:04:49.298Z,8.20
2019-04-30T07:07:22.885Z,9.00
2019-04-30T07:09:58.495Z,8.93
2019-04-30T07:12:35.258Z,11.00
2019-04-30T07:15:04.628Z,8.73
2019-04-30T07:17:33.438Z,8.60
2019-04-30T07:20:02.297Z,5.10
2019-04-30T07:22:39.697Z,5.40
2019-04-30T07:25:01.640Z,5.17
2019-04-30T07:27:32.356Z,6.40
2019-04-30T07:30:00.999Z,7.73
2019-04-30T07:32:29.957Z,6.23
2019-04-30T07:34:59.467Z,9.77
2019-04-30T07:37:29.409Z,7.67
2019-04-30T07:39:58.901Z,6.47
2019-04-30T07:42:29.407Z,8.73
2019-04-30T07:45:00.680Z,5.50
2019-04-30T07:47:29.554Z,4.80
2019-04-30T07:50:00.656Z,5.73
2019-04-30T07:52:34.123Z,7.87
2019-04-30T07:55:01.274Z,9.73
2019-04-30T07:57:32.335Z,8.67
2019-04-30T08:00:00.792Z,7.50
2019-04-30T08:05:24.137Z,5.13
2019-04-30T08:07:52.995Z,10.20
2019-04-30T08:09:35.580Z,9.37
2019-04-30T08:10:21.857Z,5.27
2019-04-30T08:12:51.221Z,7.03
2019-04-30T08:15:20.363Z,8.27
2019-04-30T08:18:02.267Z,6.43
2019-04-30T08:20:19.940Z,7.63
2019-04-30T08:22:49.434Z,7.13
2019-04-30T08:25:19.777Z,6.93
2019-04-30T08:27:49.395Z,5.50
2019-04-30T08:30:26.216Z,6.58
2019-04-30T08:32:49.965Z,7.53
2019-04-30T08:35:19.690Z,6.53
2019-04-30T08:37:49.666Z,5.00
2019-04-30T08:40:19.400Z,8.30
2019-04-30T08:42:49.518Z,4.80
2019-04-30T08:45:19.661Z,6.33
2019-04-30T08:47:49.454Z,4.10
2019-04-30T08:50:19.930Z,9.90
2019-04-30T08:52:49.984Z,5.60
2019-04-30T08:55:21.981Z,6.23
2019-04-30T08:57:50.146Z,5.70
2019-04-30T09:00:19.878Z,5.27
2019-04-30T09:02:49.309Z,6.43
2019-04-30T09:05:24.154Z,4.00
2019-04-30T09:07:52.962Z,5.27
2019-04-30T09:10:21.836Z,6.17
2019-04-30T09:12:52.022Z,4.70
2019-04-30T09:15:20.969Z,5.60
2019-04-30T09:18:00.688Z,7.30
2019-04-30T09:20:20.405Z,5.53
2019-04-30T09:22:49.682Z,8.10
2019-04-30T09:25:19.458Z,8.20
2019-04-30T09:27:48.869Z,7.53
2019-04-30T09:30:18.854Z,6.30
2019-04-30T09:32:49.850Z,4.43
2019-04-30T09:35:19.625Z,5.47
2019-04-30T09:37:49.713Z,8.37
2019-04-30T09:40:21.189Z,4.67
2019-04-30T09:42:49.892Z,4.83
2019-04-30T09:45:18.814Z,7.00
2019-04-30T09:47:47.860Z,5.77
2019-04-30T09:50:18.812Z,6.40
2019-04-30T09:52:49.532Z,5.03
2019-04-30T09:55:19.343Z,7.47
2019-04-30T09:57:48.932Z,6.30
2019-04-30T10:00:19.365Z,4.90
2019-04-30T10:02:48.942Z,7.77
2019-04-30T10:05:19.392Z,4.57
2019-04-30T10:07:49.320Z,6.13
2019-04-30T10:10:21.793Z,6.83
2019-04-30T10:12:50.829Z,6.40
2019-04-30T10:15:32.754Z,6.33
2019-04-30T10:18:01.678Z,7.07
2019-04-30T10:20:40.897Z,7.10
2019-04-30T10:23:09.927Z,7.37
2019-04-30T10:25:39.062Z,7.97
2019-04-30T10:28:09.966Z,5.30
2019-04-30T10:30:39.567Z,6.30
2019-04-30T10:33:09.995Z,7.57
2019-04-30T10:35:39.132Z,5.87
2019-04-30T10:38:10.476Z,5.57
2019-04-30T10:40:39.356Z,8.73
2019-04-30T10:43:08.846Z,7.90
2019-04-30T10:45:39.014Z,8.23
2019-04-30T10:48:08.212Z,8.07
2019-04-30T10:50:40.780Z,5.87
2019-04-30T10:53:09.142Z,8.83
2019-04-30T10:55:38.823Z,5.87
2019-04-30T10:58:07.954Z,8.77
2019-04-30T11:00:39.178Z,6.00
2019-04-30T11:03:19.567Z,6.27
2019-04-30T11:05:41.364Z,10.77
2019-04-30T11:08:10.435Z,7.27
2019-04-30T11:10:58.641Z,6.30
2019-04-30T11:13:27.567Z,7.40
2019-04-30T11:15:56.396Z,7.50
2019-04-30T11:18:25.414Z,8.40
2019-04-30T11:20:54.951Z,5.93
2019-04-30T11:23:24.155Z,5.00
2019-04-30T11:25:56.850Z,5.37
2019-04-30T11:28:26.548Z,7.10
2019-04-30T11:31:16.501Z,6.73
2019-04-30T11:33:46.112Z,8.27
2019-04-30T11:36:15.359Z,4.80
2019-04-30T11:38:44.333Z,5.30
2019-04-30T11:41:13.402Z,5.73
2019-04-30T11:43:42.218Z,4.53
2019-04-30T11:46:51.512Z,3.90
2019-04-30T11:49:20.364Z,5.33
2019-04-30T11:51:49.312Z,6.37
2019-04-30T11:54:18.746Z,5.90
2019-04-30T11:56:50.244Z,4.53
2019-04-30T11:59:19.584Z,5.47
2019-04-30T12:01:51.250Z,8.57
2019-04-30T12:04:20.250Z,4.80
2019-04-30T12:06:49.684Z,5.70
2019-04-30T12:09:49.977Z,5.63
2019-04-30T12:12:19.066Z,4.63
2019-04-30T12:14:49.426Z,5.63
2019-04-30T12:17:18.536Z,5.57
2019-04-30T12:19:48.863Z,5.87
2019-04-30T12:22:20.022Z,5.53
2019-04-30T12:24:49.973Z,4.97
2019-04-30T12:27:19.313Z,10.30
2019-04-30T12:29:49.558Z,5.10
2019-04-30T12:32:19.200Z,8.03
2019-04-30T12:34:49.229Z,7.50
2019-04-30T12:37:19.098Z,6.10
2019-04-30T12:39:49.478Z,6.47
2019-04-30T12:42:18.950Z,6.57
2019-04-30T12:44:49.604Z,6.17
2019-04-30T12:47:21.468Z,5.30
2019-04-30T12:50:00.921Z,5.37
2019-04-30T12:52:40.258Z,4.27
2019-04-30T12:55:17.510Z,6.30
2019-04-30T12:57:58.528Z,6.67
2019-04-30T13:00:24.991Z,7.20
2019-04-30T13:02:54.077Z,7.77
2019-04-30T13:05:23.072Z,7.13
2019-04-30T13:07:52.624Z,6.33
2019-04-30T13:10:23.164Z,5.90
2019-04-30T13:12:53.066Z,5.33
2019-04-30T13:15:22.667Z,6.60
2019-04-30T13:17:51.551Z,6.15
2019-04-30T13:20:23.816Z,3.93
2019-04-30T13:22:51.202Z,7.73
2019-04-30T13:25:30.352Z,5.30
2019-04-30T13:27:54.253Z,5.12
2019-04-30T13:30:25.135Z,10.33
2019-04-30T13:33:20.320Z,5.97
2019-04-30T13:35:49.050Z,4.70
2019-04-30T13:38:22.865Z,4.63
2019-04-30T13:41:08.671Z,8.90
2019-04-30T13:43:55.158Z,8.30
2019-04-30T13:46:24.668Z,5.97
2019-04-30T13:48:53.692Z,4.93
2019-04-30T13:51:22.668Z,7.87
2019-04-30T13:53:51.544Z,4.40
2019-04-30T13:56:20.469Z,8.53
2019-04-30T13:58:49.571Z,5.53
2019-04-30T14:01:18.909Z,5.47
2019-04-30T14:04:17.069Z,4.73
2019-04-30T14:07:04.076Z,5.60
2019-04-30T14:09:34.100Z,6.43
2019-04-30T14:12:03.013Z,5.00
2019-04-30T14:14:32.359Z,6.60
2019-04-30T14:17:01.429Z,8.80
2019-04-30T14:19:30.429Z,7.47
2019-04-30T14:21:59.345Z,6.43
2019-04-30T14:24:28.253Z,7.05
2019-04-30T14:26:58.951Z,5.03
2019-04-30T14:29:28.489Z,4.27
2019-04-30T14:31:58.839Z,8.00
2019-04-30T14:34:28.591Z,4.80
2019-04-30T14:36:59.384Z,4.80
2019-04-30T14:39:29.177Z,6.37
2019-04-30T14:41:59.960Z,11.47
2019-04-30T14:44:31.905Z,5.40
2019-04-30T14:47:11.618Z,5.70
2019-04-30T14:50:15.792Z,6.73
2019-04-30T14:53:06.771Z,8.00
2019-04-30T14:56:13.170Z,6.47
2019-04-30T14:59:13.335Z,5.57
2019-04-30T15:01:55.270Z,6.13
2019-04-30T15:04:24.512Z,5.90
2019-04-30T15:06:53.326Z,6.40
2019-04-30T15:09:22.316Z,7.70
2019-04-30T15:11:51.204Z,6.10
2019-04-30T15:14:20.178Z,5.67
2019-04-30T15:16:49.204Z,5.03
2019-04-30T15:19:18.088Z,6.30
2019-04-30T15:21:46.901Z,6.07
2019-04-30T15:24:29.214Z,6.70
2019-04-30T15:26:58.191Z,6.93
2019-04-30T15:29:29.004Z,5.23
2019-04-30T15:31:59.240Z,4.70
2019-04-30T15:34:29.357Z,6.10
2019-04-30T15:36:59.167Z,7.90
2019-04-30T15:39:45.097Z,5.63
2019-04-30T15:42:14.698Z,6.97
2019-04-30T15:44:45.795Z,7.00
2019-04-30T15:47:14.572Z,11.77
2019-04-30T15:49:43.475Z,6.67
2019-04-30T15:52:12.438Z,5.63
2019-04-30T15:54:41.306Z,8.57
2019-04-30T15:57:10.297Z,5.93
2019-04-30T15:59:40.893Z,5.23
2019-04-30T16:02:14.750Z,6.17
2019-04-30T16:05:02.851Z,8.13
2019-04-30T16:07:31.972Z,5.53
2019-04-30T16:10:18.670Z,5.03
2019-04-30T16:12:58.761Z,10.37
2019-04-30T16:15:29.644Z,6.20
2019-04-30T16:18:00.204Z,5.53
2019-04-30T16:20:30.082Z,5.43
2019-04-30T16:23:02.455Z,6.83
2019-04-30T16:25:31.677Z,7.27
2019-04-30T16:28:00.691Z,7.10
2019-04-30T16:30:29.777Z,8.77
2019-04-30T16:32:59.626Z,9.40
2019-04-30T16:35:29.589Z,6.00
2019-04-30T16:37:59.396Z,11.80
2019-04-30T16:40:29.042Z,6.93
2019-04-30T16:42:58.119Z,6.73
2019-04-30T16:45:29.046Z,6.93
2019-04-30T16:48:00.268Z,6.13
2019-04-30T16:50:29.938Z,6.70
2019-04-30T16:52:59.116Z,9.10
2019-04-30T16:55:28.050Z,6.77
2019-04-30T16:57:58.542Z,6.97
2019-04-30T17:00:28.837Z,6.77
2019-04-30T17:03:03.125Z,8.13
2019-04-30T17:05:39.600Z,6.43
2019-04-30T17:08:25.466Z,7.50
2019-04-30T17:11:12.170Z,7.77
2019-04-30T17:14:00.240Z,7.47
2019-04-30T17:16:30.207Z,7.27
2019-04-30T17:18:59.261Z,10.57
2019-04-30T17:21:29.645Z,7.37
2019-04-30T17:23:58.925Z,7.70
2019-04-30T17:26:27.950Z,6.20
2019-04-30T17:28:57.109Z,7.77
2019-04-30T17:31:26.071Z,8.10
2019-04-30T17:33:55.100Z,7.77
2019-04-30T17:36:23.986Z,7.37
2019-04-30T17:38:53.215Z,9.73
2019-04-30T17:41:22.204Z,7.43
2019-04-30T17:43:51.143Z,9.03
2019-04-30T17:46:20.332Z,13.00
2019-04-30T17:48:49.571Z,6.97
2019-04-30T17:51:18.664Z,8.07
2019-04-30T17:54:05.739Z,7.13
2019-04-30T17:56:34.841Z,8.33
2019-04-30T17:59:03.884Z,8.13
2019-04-30T18:01:32.865Z,7.87
2019-04-30T18:04:01.938Z,7.53
2019-04-30T18:06:31.158Z,11.80
2019-04-30T18:09:00.034Z,8.90
2019-04-30T18:11:29.606Z,9.60
2019-04-30T18:13:59.008Z,7.40
2019-04-30T18:16:28.696Z,6.67
2019-04-30T18:19:18.599Z,10.30
2019-04-30T18:21:51.921Z,8.23
2019-04-30T18:24:30.766Z,7.90
2019-04-30T18:27:21.265Z,10.57
2019-04-30T18:29:50.358Z,12.87
2019-04-30T18:32:20.757Z,11.27
2019-04-30T18:34:49.693Z,8.00
2019-04-30T18:37:18.938Z,9.43
2019-04-30T18:39:47.912Z,7.23
2019-04-30T18:42:16.959Z,8.40
2019-04-30T18:44:45.917Z,8.08
2019-04-30T18:47:15.007Z,12.70
2019-04-30T18:49:43.853Z,9.00
2019-04-30T18:52:12.790Z,8.83
2019-04-30T18:54:42.557Z,10.07
2019-04-30T18:57:11.542Z,8.83
2019-04-30T18:59:41.416Z,9.13
2019-04-30T19:02:12.664Z,17.80
2019-04-30T19:04:41.597Z,22.90
2019-04-30T19:07:21.793Z,14.80
2019-04-30T19:10:00.810Z,11.97
2019-04-30T19:12:48.941Z,17.33
2019-04-30T19:16:14.951Z,17.60
2019-04-30T19:18:29.122Z,16.83
2019-04-30T19:21:00.038Z,22.03
2019-04-30T19:23:29.170Z,19.10
2019-04-30T19:25:59.669Z,20.50
2019-04-30T19:28:28.823Z,17.30
2019-04-30T19:31:00.459Z,14.13
2019-04-30T19:33:29.228Z,16.60
2019-04-30T19:35:58.993Z,15.30
2019-04-30T19:38:27.917Z,20.23
2019-04-30T19:40:56.778Z,28.03
2019-04-30T19:43:25.621Z,30.93
2019-04-30T19:45:54.472Z,32.60
2019-04-30T19:48:23.348Z,22.27
2019-04-30T19:50:52.261Z,57.40
2019-04-30T19:53:22.276Z,19.93
2019-04-30T19:55:51.455Z,22.63
2019-04-30T19:58:29.394Z,22.67
2019-04-30T20:00:51.036Z,26.30
2019-04-30T20:03:19.964Z,23.00
2019-04-30T20:05:49.475Z,25.13
2019-04-30T20:08:19.857Z,27.97
2019-04-30T20:10:49.649Z,30.53
2019-04-30T20:13:32.892Z,31.73
2019-04-30T20:15:49.487Z,32.93
2019-04-30T20:18:19.052Z,31.37
2019-04-30T20:20:51.920Z,35.77
2019-04-30T20:23:20.641Z,33.10
2019-04-30T20:25:49.658Z,41.70
2019-04-30T20:28:18.621Z,35.23
2019-04-30T20:30:48.984Z,48.10
2019-04-30T20:33:19.030Z,46.03
2019-04-30T20:35:48.933Z,43.47
2019-04-30T20:38:35.921Z,45.87
2019-04-30T20:41:05.658Z,45.30
2019-04-30T20:43:34.732Z,43.97
2019-04-30T20:46:03.613Z,54.60
2019-04-30T20:48:32.616Z,74.23
2019-04-30T20:51:01.689Z,73.00
2019-04-30T20:53:30.684Z,61.87
2019-04-30T20:55:59.643Z,63.30
2019-04-30T20:58:28.681Z,66.10
2019-04-30T21:01:03.952Z,67.40
2019-04-30T21:03:29.552Z,83.90
2019-04-30T21:06:00.534Z,64.73
2019-04-30T21:08:29.322Z,81.10
2019-04-30T21:10:59.399Z,59.00
2019-04-30T21:13:29.468Z,71.27
2019-04-30T21:15:59.497Z,68.97
2019-04-30T21:18:30.471Z,59.77
2019-04-30T21:20:59.617Z,83.67
2019-04-30T21:23:29.275Z,62.73
2019-04-30T21:25:58.971Z,112.95
2019-04-30T21:28:29.708Z,72.17
2019-04-30T21:31:01.025Z,76.93
2019-04-30T21:33:41.188Z,84.52
2019-04-30T21:36:19.015Z,77.80
2019-04-30T21:38:49.050Z,89.27
2019-04-30T21:41:19.599Z,95.17
2019-04-30T21:43:48.521Z,159.10
2019-04-30T21:46:19.088Z,134.33
2019-04-30T21:48:48.799Z,91.37
2019-04-30T21:51:19.279Z,90.40
2019-04-30T21:53:50.325Z,102.20
2019-04-30T21:56:18.917Z,98.23
2019-04-30T21:58:47.842Z,69.77
2019-04-30T22:01:22.519Z,82.23
2019-04-30T22:03:51.564Z,78.60
2019-04-30T22:06:20.584Z,75.10
2019-04-30T22:08:49.524Z,99.47
2019-04-30T22:11:19.816Z,85.47
2019-04-30T22:13:49.433Z,89.30
2019-04-30T22:16:20.435Z,85.42
2019-04-30T22:18:49.467Z,84.00
2019-04-30T22:21:18.367Z,83.77
2019-04-30T22:23:47.351Z,82.37
2019-04-30T22:26:16.218Z,82.27
2019-04-30T22:28:45.098Z,77.53
2019-04-30T22:31:14.113Z,76.00
2019-04-30T22:33:42.947Z,66.90
2019-04-30T22:36:18.892Z,64.73
2019-04-30T22:39:05.523Z,71.77
2019-04-30T22:41:35.027Z,62.93
2019-04-30T22:44:04.117Z,68.00
2019-04-30T22:46:33.518Z,72.70
2019-04-30T22:49:02.429Z,80.47
2019-04-30T22:51:31.260Z,61.53
2019-04-30T22:54:00.631Z,64.27
2019-04-30T22:56:29.648Z,67.57
2019-04-30T22:58:58.477Z,61.63
2019-04-30T23:01:41.874Z,60.83
2019-04-30T23:04:14.609Z,65.20
2019-04-30T23:06:43.505Z,63.23
2019-04-30T23:09:13.804Z,66.63
2019-04-30T23:11:42.652Z,60.73
2019-04-30T23:14:11.488Z,61.42
2019-04-30T23:16:40.671Z,63.13
2019-04-30T23:19:09.642Z,57.30
2019-04-30T23:21:38.756Z,62.40
2019-04-30T23:24:07.758Z,59.00
2019-04-30T23:26:36.674Z,61.93
2019-04-30T23:29:05.836Z,74.10
2019-04-30T23:31:34.912Z,69.20
2019-04-30T23:34:03.916Z,71.90
2019-04-30T23:36:32.878Z,50.13
2019-04-30T23:39:01.755Z,66.97
2019-04-30T23:41:30.617Z,67.73
2019-04-30T23:43:59.584Z,62.10
2019-04-30T23:46:28.513Z,74.93
2019-04-30T23:48:57.517Z,60.40
2019-04-30T23:51:26.371Z,58.97
2019-04-30T23:53:55.227Z,59.67
2019-04-30T23:56:24.134Z,82.03
2019-04-30T23:58:53.023Z,76.90
